sensor_id;sensor_type;location;lat;lon;timestamp;temperature;humidity
34815;DHT22;21030;53.912;15.214;2022-11-21T00:01:20;24.70;25.20
34815;DHT22;21030;53.912;15.214;2022-11-21T00:03:47;24.70;25.20
34815;DHT22;21030;53.912;15.214;2022-11-21T00:06:15;25.40;24.90
34815;DHT22;21030;53.912;15.214;2022-11-21T00:08:42;25.50;24.30
34815;DHT22;21030;53.912;15.214;2022-11-21T00:11:09;26.00;24.50
34815;DHT22;21030;53.912;15.214;2022-11-21T00:13:36;27.20;23.60
34815;DHT22;21030;53.912;15.214;2022-11-21T00:16:05;27.20;23.00
34815;DHT22;21030;53.912;15.214;2022-11-21T00:18:34;28.00;22.60
34815;DHT22;21030;53.912;15.214;2022-11-21T00:21:10;28.10;22.50
34815;DHT22;21030;53.912;15.214;2022-11-21T00:23:38;27.90;22.50
34815;DHT22;21030;53.912;15.214;2022-11-21T00:26:06;27.80;23.00
34815;DHT22;21030;53.912;15.214;2022-11-21T00:28:34;27.80;22.00
34815;DHT22;21030;53.912;15.214;2022-11-21T00:31:02;27.60;22.20
34815;DHT22;21030;53.912;15.214;2022-11-21T00:33:29;27.10;22.50
34815;DHT22;21030;53.912;15.214;2022-11-21T00:35:56;26.50;22.70
34815;DHT22;21030;53.912;15.214;2022-11-21T00:38:23;26.10;22.90
34815;DHT22;21030;53.912;15.214;2022-11-21T00:40:51;26.00;23.30
34815;DHT22;21030;53.912;15.214;2022-11-21T00:43:18;26.10;23.30
34815;DHT22;21030;53.912;15.214;2022-11-21T00:45:45;26.20;23.50
34815;DHT22;21030;53.912;15.214;2022-11-21T00:48:12;26.30;23.30
34815;DHT22;21030;53.912;15.214;2022-11-21T00:50:39;26.50;23.10
34815;DHT22;21030;53.912;15.214;2022-11-21T00:53:06;26.90;22.90
34815;DHT22;21030;53.912;15.214;2022-11-21T00:55:33;27.30;22.80
34815;DHT22;21030;53.912;15.214;2022-11-21T00:58:02;27.50;22.50
34815;DHT22;21030;53.912;15.214;2022-11-21T01:00:29;27.60;22.50
34815;DHT22;21030;53.912;15.214;2022-11-21T01:02:56;27.50;22.50
34815;DHT22;21030;53.912;15.214;2022-11-21T01:05:23;27.40;22.50
34815;DHT22;21030;53.912;15.214;2022-11-21T01:07:50;27.60;22.60
34815;DHT22;21030;53.912;15.214;2022-11-21T01:10:17;27.00;22.60
34815;DHT22;21030;53.912;15.214;2022-11-21T01:12:44;26.60;23.10
34815;DHT22;21030;53.912;15.214;2022-11-21T01:15:11;27.30;23.00
34815;DHT22;21030;53.912;15.214;2022-11-21T01:17:38;27.70;22.90
34815;DHT22;21030;53.912;15.214;2022-11-21T01:20:06;28.30;22.40
34815;DHT22;21030;53.912;15.214;2022-11-21T01:22:33;28.00;22.00
34815;DHT22;21030;53.912;15.214;2022-11-21T01:25:00;28.10;22.00
34815;DHT22;21030;53.912;15.214;2022-11-21T01:27:27;28.10;22.10
34815;DHT22;21030;53.912;15.214;2022-11-21T01:29:54;27.10;22.30
34815;DHT22;21030;53.912;15.214;2022-11-21T01:32:21;26.50;23.50
34815;DHT22;21030;53.912;15.214;2022-11-21T01:34:48;25.90;23.40
34815;DHT22;21030;53.912;15.214;2022-11-21T01:37:15;26.20;23.70
34815;DHT22;21030;53.912;15.214;2022-11-21T01:39:43;26.60;23.50
34815;DHT22;21030;53.912;15.214;2022-11-21T01:42:11;27.20;23.10
34815;DHT22;21030;53.912;15.214;2022-11-21T01:44:51;27.30;23.50
34815;DHT22;21030;53.912;15.214;2022-11-21T01:47:19;26.20;23.10
34815;DHT22;21030;53.912;15.214;2022-11-21T01:49:48;26.70;23.10
34815;DHT22;21030;53.912;15.214;2022-11-21T01:52:27;25.30;23.50
34815;DHT22;21030;53.912;15.214;2022-11-21T01:55:04;25.30;24.20
34815;DHT22;21030;53.912;15.214;2022-11-21T01:57:40;26.10;23.60
34815;DHT22;21030;53.912;15.214;2022-11-21T02:00:16;26.10;23.70
34815;DHT22;21030;53.912;15.214;2022-11-21T02:02:55;26.80;23.40
34815;DHT22;21030;53.912;15.214;2022-11-21T02:05:34;26.50;23.20
34815;DHT22;21030;53.912;15.214;2022-11-21T02:08:20;26.90;23.30
34815;DHT22;21030;53.912;15.214;2022-11-21T02:14:02;27.40;22.40
34815;DHT22;21030;53.912;15.214;2022-11-21T02:16:30;27.40;22.60
34815;DHT22;21030;53.912;15.214;2022-11-21T02:18:57;27.40;22.50
34815;DHT22;21030;53.912;15.214;2022-11-21T02:21:42;27.20;22.50
34815;DHT22;21030;53.912;15.214;2022-11-21T02:27:19;27.50;22.50
34815;DHT22;21030;53.912;15.214;2022-11-21T02:29:46;27.90;22.30
34815;DHT22;21030;53.912;15.214;2022-11-21T02:32:21;28.50;21.90
34815;DHT22;21030;53.912;15.214;2022-11-21T02:34:48;28.40;21.60
34815;DHT22;21030;53.912;15.214;2022-11-21T02:37:16;28.20;21.90
34815;DHT22;21030;53.912;15.214;2022-11-21T02:39:45;28.10;21.80
34815;DHT22;21030;53.912;15.214;2022-11-21T02:45:32;27.50;22.10
34815;DHT22;21030;53.912;15.214;2022-11-21T02:48:00;27.20;22.10
34815;DHT22;21030;53.912;15.214;2022-11-21T02:50:41;27.50;22.20
34815;DHT22;21030;53.912;15.214;2022-11-21T02:53:11;28.20;21.90
34815;DHT22;21030;53.912;15.214;2022-11-21T02:55:39;28.50;21.40
34815;DHT22;21030;53.912;15.214;2022-11-21T02:58:06;28.70;21.30
34815;DHT22;21030;53.912;15.214;2022-11-21T03:00:36;28.50;21.20
34815;DHT22;21030;53.912;15.214;2022-11-21T03:03:04;28.20;21.60
34815;DHT22;21030;53.912;15.214;2022-11-21T03:05:31;28.00;21.50
34815;DHT22;21030;53.912;15.214;2022-11-21T03:07:58;27.20;22.00
34815;DHT22;21030;53.912;15.214;2022-11-21T03:10:25;27.10;22.40
34815;DHT22;21030;53.912;15.214;2022-11-21T03:12:53;27.40;22.40
34815;DHT22;21030;53.912;15.214;2022-11-21T03:15:32;27.50;22.30
34815;DHT22;21030;53.912;15.214;2022-11-21T03:18:00;27.50;22.10
34815;DHT22;21030;53.912;15.214;2022-11-21T03:20:30;26.90;22.40
34815;DHT22;21030;53.912;15.214;2022-11-21T03:22:57;27.10;22.40
34815;DHT22;21030;53.912;15.214;2022-11-21T03:25:24;27.30;22.50
34815;DHT22;21030;53.912;15.214;2022-11-21T03:27:52;27.80;22.30
34815;DHT22;21030;53.912;15.214;2022-11-21T03:30:20;27.70;22.20
34815;DHT22;21030;53.912;15.214;2022-11-21T03:32:47;28.00;22.10
34815;DHT22;21030;53.912;15.214;2022-11-21T03:35:15;28.50;21.70
34815;DHT22;21030;53.912;15.214;2022-11-21T03:37:42;28.50;21.60
34815;DHT22;21030;53.912;15.214;2022-11-21T03:40:09;28.30;21.80
34815;DHT22;21030;53.912;15.214;2022-11-21T03:42:37;28.00;21.80
34815;DHT22;21030;53.912;15.214;2022-11-21T03:45:04;28.30;21.80
34815;DHT22;21030;53.912;15.214;2022-11-21T03:47:31;28.40;21.70
34815;DHT22;21030;53.912;15.214;2022-11-21T03:49:58;27.60;21.90
34815;DHT22;21030;53.912;15.214;2022-11-21T03:52:25;28.00;22.10
34815;DHT22;21030;53.912;15.214;2022-11-21T03:54:52;27.70;22.10
34815;DHT22;21030;53.912;15.214;2022-11-21T03:57:19;27.60;22.30
34815;DHT22;21030;53.912;15.214;2022-11-21T03:59:46;27.50;22.40
34815;DHT22;21030;53.912;15.214;2022-11-21T04:02:13;27.10;22.40
34815;DHT22;21030;53.912;15.214;2022-11-21T04:04:40;26.70;22.50
34815;DHT22;21030;53.912;15.214;2022-11-21T04:07:07;26.50;22.70
34815;DHT22;21030;53.912;15.214;2022-11-21T04:09:34;26.90;23.10
34815;DHT22;21030;53.912;15.214;2022-11-21T04:12:02;27.00;22.90
34815;DHT22;21030;53.912;15.214;2022-11-21T04:14:33;26.90;23.00
34815;DHT22;21030;53.912;15.214;2022-11-21T04:17:00;26.30;22.90
34815;DHT22;21030;53.912;15.214;2022-11-21T04:19:27;25.20;23.70
34815;DHT22;21030;53.912;15.214;2022-11-21T04:21:54;24.90;24.30
34815;DHT22;21030;53.912;15.214;2022-11-21T04:24:21;25.90;24.10
34815;DHT22;21030;53.912;15.214;2022-11-21T04:26:48;26.30;23.30
34815;DHT22;21030;53.912;15.214;2022-11-21T04:29:15;26.30;23.40
34815;DHT22;21030;53.912;15.214;2022-11-21T04:31:42;26.20;23.30
34815;DHT22;21030;53.912;15.214;2022-11-21T04:34:09;25.80;23.60
34815;DHT22;21030;53.912;15.214;2022-11-21T04:36:36;25.10;24.00
34815;DHT22;21030;53.912;15.214;2022-11-21T04:39:03;25.60;24.20
34815;DHT22;21030;53.912;15.214;2022-11-21T04:41:30;25.30;23.90
34815;DHT22;21030;53.912;15.214;2022-11-21T04:43:57;25.70;24.00
34815;DHT22;21030;53.912;15.214;2022-11-21T04:46:24;26.10;23.90
34815;DHT22;21030;53.912;15.214;2022-11-21T04:48:51;25.50;23.90
34815;DHT22;21030;53.912;15.214;2022-11-21T04:51:18;26.10;23.90
34815;DHT22;21030;53.912;15.214;2022-11-21T04:53:45;26.00;23.40
34815;DHT22;21030;53.912;15.214;2022-11-21T04:56:12;26.50;23.60
34815;DHT22;21030;53.912;15.214;2022-11-21T04:58:43;26.70;23.30
34815;DHT22;21030;53.912;15.214;2022-11-21T05:01:10;26.80;23.10
34815;DHT22;21030;53.912;15.214;2022-11-21T05:03:37;26.60;22.70
34815;DHT22;21030;53.912;15.214;2022-11-21T05:06:04;26.50;23.40
34815;DHT22;21030;53.912;15.214;2022-11-21T05:08:31;26.90;23.10
34815;DHT22;21030;53.912;15.214;2022-11-21T05:10:58;27.10;23.10
34815;DHT22;21030;53.912;15.214;2022-11-21T05:13:44;27.10;23.00
34815;DHT22;21030;53.912;15.214;2022-11-21T05:16:11;27.90;22.60
34815;DHT22;21030;53.912;15.214;2022-11-21T05:18:37;27.00;22.70
34815;DHT22;21030;53.912;15.214;2022-11-21T05:21:04;26.30;23.20
34815;DHT22;21030;53.912;15.214;2022-11-21T05:23:31;25.70;23.80
34815;DHT22;21030;53.912;15.214;2022-11-21T05:25:58;25.40;23.80
34815;DHT22;21030;53.912;15.214;2022-11-21T05:28:25;26.00;24.10
34815;DHT22;21030;53.912;15.214;2022-11-21T05:30:52;26.10;23.70
34815;DHT22;21030;53.912;15.214;2022-11-21T05:33:19;25.80;23.80
34815;DHT22;21030;53.912;15.214;2022-11-21T05:35:46;25.10;23.90
34815;DHT22;21030;53.912;15.214;2022-11-21T05:38:13;25.30;24.30
34815;DHT22;21030;53.912;15.214;2022-11-21T05:40:40;25.50;24.20
34815;DHT22;21030;53.912;15.214;2022-11-21T05:43:10;25.50;24.40
34815;DHT22;21030;53.912;15.214;2022-11-21T05:45:55;25.50;24.10
34815;DHT22;21030;53.912;15.214;2022-11-21T05:48:22;25.40;24.20
34815;DHT22;21030;53.912;15.214;2022-11-21T05:50:49;25.30;24.20
34815;DHT22;21030;53.912;15.214;2022-11-21T05:53:17;24.90;24.60
34815;DHT22;21030;53.912;15.214;2022-11-21T05:55:44;24.90;24.40
34815;DHT22;21030;53.912;15.214;2022-11-21T05:58:12;24.20;25.00
34815;DHT22;21030;53.912;15.214;2022-11-21T06:00:39;24.40;25.50
34815;DHT22;21030;53.912;15.214;2022-11-21T06:03:08;24.30;25.30
34815;DHT22;21030;53.912;15.214;2022-11-21T06:08:30;23.50;25.40
34815;DHT22;21030;53.912;15.214;2022-11-21T06:10:58;23.60;25.90
34815;DHT22;21030;53.912;15.214;2022-11-21T06:13:25;23.60;25.90
34815;DHT22;21030;53.912;15.214;2022-11-21T06:16:08;24.20;25.70
34815;DHT22;21030;53.912;15.214;2022-11-21T06:18:40;25.00;25.30
34815;DHT22;21030;53.912;15.214;2022-11-21T06:21:16;25.60;24.50
34815;DHT22;21030;53.912;15.214;2022-11-21T06:23:44;25.50;24.20
34815;DHT22;21030;53.912;15.214;2022-11-21T06:26:14;25.60;24.00
34815;DHT22;21030;53.912;15.214;2022-11-21T06:28:43;25.80;24.10
34815;DHT22;21030;53.912;15.214;2022-11-21T06:31:12;26.80;23.60
34815;DHT22;21030;53.912;15.214;2022-11-21T06:33:41;26.70;23.20
34815;DHT22;21030;53.912;15.214;2022-11-21T06:36:16;26.00;23.60
34815;DHT22;21030;53.912;15.214;2022-11-21T06:38:45;26.40;23.80
34815;DHT22;21030;53.912;15.214;2022-11-21T06:41:14;26.50;23.30
34815;DHT22;21030;53.912;15.214;2022-11-21T06:43:41;26.90;23.10
34815;DHT22;21030;53.912;15.214;2022-11-21T06:46:09;26.70;23.00
34815;DHT22;21030;53.912;15.214;2022-11-21T06:48:37;26.10;23.10
34815;DHT22;21030;53.912;15.214;2022-11-21T06:51:06;27.10;23.10
34815;DHT22;21030;53.912;15.214;2022-11-21T06:53:34;27.20;22.60
34815;DHT22;21030;53.912;15.214;2022-11-21T06:56:02;27.00;22.80
34815;DHT22;21030;53.912;15.214;2022-11-21T06:58:30;26.40;22.80
34815;DHT22;21030;53.912;15.214;2022-11-21T07:01:01;25.80;23.20
34815;DHT22;21030;53.912;15.214;2022-11-21T07:03:29;24.80;23.90
34815;DHT22;21030;53.912;15.214;2022-11-21T07:05:57;24.50;24.40
34815;DHT22;21030;53.912;15.214;2022-11-21T07:08:27;24.50;24.50
34815;DHT22;21030;53.912;15.214;2022-11-21T07:11:05;24.70;24.30
34815;DHT22;21030;53.912;15.214;2022-11-21T07:13:52;25.70;24.20
34815;DHT22;21030;53.912;15.214;2022-11-21T07:16:19;26.00;23.40
34815;DHT22;21030;53.912;15.214;2022-11-21T07:18:46;26.70;23.20
34815;DHT22;21030;53.912;15.214;2022-11-21T07:21:13;26.90;23.00
34815;DHT22;21030;53.912;15.214;2022-11-21T07:23:40;27.60;22.60
34815;DHT22;21030;53.912;15.214;2022-11-21T07:26:09;27.50;22.40
34815;DHT22;21030;53.912;15.214;2022-11-21T07:28:37;28.00;22.20
34815;DHT22;21030;53.912;15.214;2022-11-21T07:31:04;28.50;21.90
34815;DHT22;21030;53.912;15.214;2022-11-21T07:33:38;28.70;21.50
34815;DHT22;21030;53.912;15.214;2022-11-21T07:36:05;28.50;21.50
34815;DHT22;21030;53.912;15.214;2022-11-21T07:38:33;28.00;21.40
34815;DHT22;21030;53.912;15.214;2022-11-21T07:41:00;28.10;21.70
34815;DHT22;21030;53.912;15.214;2022-11-21T07:43:27;28.40;21.80
34815;DHT22;21030;53.912;15.214;2022-11-21T07:45:55;27.60;21.90
34815;DHT22;21030;53.912;15.214;2022-11-21T07:48:21;27.20;21.90
34815;DHT22;21030;53.912;15.214;2022-11-21T07:50:49;27.30;22.10
34815;DHT22;21030;53.912;15.214;2022-11-21T07:53:15;27.00;22.20
34815;DHT22;21030;53.912;15.214;2022-11-21T07:55:42;26.90;22.30
34815;DHT22;21030;53.912;15.214;2022-11-21T07:58:11;27.60;22.30
34815;DHT22;21030;53.912;15.214;2022-11-21T08:00:40;28.10;22.00
34815;DHT22;21030;53.912;15.214;2022-11-21T08:03:11;27.90;21.80
34815;DHT22;21030;53.912;15.214;2022-11-21T08:05:40;27.70;21.70
34815;DHT22;21030;53.912;15.214;2022-11-21T08:08:09;28.00;21.90
34815;DHT22;21030;53.912;15.214;2022-11-21T08:10:39;27.10;21.80
34815;DHT22;21030;53.912;15.214;2022-11-21T08:13:06;26.90;22.00
34815;DHT22;21030;53.912;15.214;2022-11-21T08:15:34;26.60;22.40
34815;DHT22;21030;53.912;15.214;2022-11-21T08:18:12;26.90;22.40
34815;DHT22;21030;53.912;15.214;2022-11-21T08:20:39;27.40;22.20
34815;DHT22;21030;53.912;15.214;2022-11-21T08:23:06;27.40;22.10
34815;DHT22;21030;53.912;15.214;2022-11-21T08:25:36;27.60;21.80
34815;DHT22;21030;53.912;15.214;2022-11-21T08:28:04;27.00;22.00
34815;DHT22;21030;53.912;15.214;2022-11-21T08:30:32;26.70;22.30
34815;DHT22;21030;53.912;15.214;2022-11-21T08:33:01;26.50;22.20
34815;DHT22;21030;53.912;15.214;2022-11-21T08:35:28;26.20;22.40
34815;DHT22;21030;53.912;15.214;2022-11-21T08:37:56;26.40;22.70
34815;DHT22;21030;53.912;15.214;2022-11-21T08:40:25;26.70;22.40
34815;DHT22;21030;53.912;15.214;2022-11-21T08:43:00;27.20;22.00
34815;DHT22;21030;53.912;15.214;2022-11-21T08:45:29;27.50;22.00
34815;DHT22;21030;53.912;15.214;2022-11-21T08:47:57;27.30;21.80
34815;DHT22;21030;53.912;15.214;2022-11-21T08:50:24;26.90;21.90
34815;DHT22;21030;53.912;15.214;2022-11-21T08:52:52;27.00;22.00
34815;DHT22;21030;53.912;15.214;2022-11-21T08:55:19;26.40;22.10
34815;DHT22;21030;53.912;15.214;2022-11-21T08:57:46;26.50;22.60
34815;DHT22;21030;53.912;15.214;2022-11-21T09:00:13;27.20;22.20
34815;DHT22;21030;53.912;15.214;2022-11-21T09:02:41;27.00;22.10
34815;DHT22;21030;53.912;15.214;2022-11-21T09:05:08;26.50;21.80
34815;DHT22;21030;53.912;15.214;2022-11-21T09:07:35;27.30;22.30
34815;DHT22;21030;53.912;15.214;2022-11-21T09:10:03;27.80;21.80
34815;DHT22;21030;53.912;15.214;2022-11-21T09:12:30;27.90;21.20
34815;DHT22;21030;53.912;15.214;2022-11-21T09:14:58;27.10;21.60
34815;DHT22;21030;53.912;15.214;2022-11-21T09:17:47;26.20;21.90
34815;DHT22;21030;53.912;15.214;2022-11-21T09:20:39;25.80;22.60
34815;DHT22;21030;53.912;15.214;2022-11-21T09:23:11;25.70;22.70
34815;DHT22;21030;53.912;15.214;2022-11-21T09:25:39;26.50;22.70
34815;DHT22;21030;53.912;15.214;2022-11-21T09:28:08;27.30;22.20
34815;DHT22;21030;53.912;15.214;2022-11-21T09:30:35;26.90;21.80
34815;DHT22;21030;53.912;15.214;2022-11-21T09:33:07;26.90;22.20
34815;DHT22;21030;53.912;15.214;2022-11-21T09:35:35;27.60;21.90
34815;DHT22;21030;53.912;15.214;2022-11-21T09:38:02;27.60;21.70
34815;DHT22;21030;53.912;15.214;2022-11-21T09:40:30;27.70;21.70
34815;DHT22;21030;53.912;15.214;2022-11-21T09:43:04;27.40;21.70
34815;DHT22;21030;53.912;15.214;2022-11-21T09:45:39;27.40;22.00
34815;DHT22;21030;53.912;15.214;2022-11-21T09:48:11;27.10;21.90
34815;DHT22;21030;53.912;15.214;2022-11-21T09:50:43;26.90;21.90
34815;DHT22;21030;53.912;15.214;2022-11-21T09:53:35;27.70;21.70
34815;DHT22;21030;53.912;15.214;2022-11-21T09:56:10;27.30;21.40
34815;DHT22;21030;53.912;15.214;2022-11-21T09:58:44;27.80;21.50
34815;DHT22;21030;53.912;15.214;2022-11-21T10:01:15;27.70;21.30
34815;DHT22;21030;53.912;15.214;2022-11-21T10:03:45;27.80;21.30
34815;DHT22;21030;53.912;15.214;2022-11-21T10:06:25;27.50;21.40
34815;DHT22;21030;53.912;15.214;2022-11-21T10:14:13;27.90;21.30
34815;DHT22;21030;53.912;15.214;2022-11-21T10:16:57;28.50;21.20
34815;DHT22;21030;53.912;15.214;2022-11-21T10:22:41;25.80;22.00
34815;DHT22;21030;53.912;15.214;2022-11-21T10:25:23;25.70;22.60
34815;DHT22;21030;53.912;15.214;2022-11-21T10:28:01;25.70;22.30
34815;DHT22;21030;53.912;15.214;2022-11-21T10:30:30;25.60;22.80
34815;DHT22;21030;53.912;15.214;2022-11-21T10:33:01;27.00;22.20
34815;DHT22;21030;53.912;15.214;2022-11-21T10:35:44;26.60;21.60
34815;DHT22;21030;53.912;15.214;2022-11-21T10:41:37;25.60;22.40
34815;DHT22;21030;53.912;15.214;2022-11-21T10:43:46;26.00;22.60
34815;DHT22;21030;53.912;15.214;2022-11-21T10:46:34;26.40;22.40
34815;DHT22;21030;53.912;15.214;2022-11-21T10:49:02;26.50;22.20
34815;DHT22;21030;53.912;15.214;2022-11-21T10:57:31;26.40;22.20
34815;DHT22;21030;53.912;15.214;2022-11-21T11:02:40;25.00;23.00
34815;DHT22;21030;53.912;15.214;2022-11-21T11:05:17;24.90;23.10
34815;DHT22;21030;53.912;15.214;2022-11-21T11:10:39;25.40;23.10
34815;DHT22;21030;53.912;15.214;2022-11-21T11:13:14;26.60;22.50
34815;DHT22;21030;53.912;15.214;2022-11-21T11:16:18;26.50;21.80
34815;DHT22;21030;53.912;15.214;2022-11-21T11:19:14;26.10;22.10
34815;DHT22;21030;53.912;15.214;2022-11-21T11:21:44;26.00;22.10
34815;DHT22;21030;53.912;15.214;2022-11-21T11:29:17;27.20;22.10
34815;DHT22;21030;53.912;15.214;2022-11-21T11:31:52;26.80;21.60
34815;DHT22;21030;53.912;15.214;2022-11-21T11:34:23;25.90;22.00
34815;DHT22;21030;53.912;15.214;2022-11-21T11:37:11;25.00;22.50
34815;DHT22;21030;53.912;15.214;2022-11-21T11:48:34;25.70;21.50
34815;DHT22;21030;53.912;15.214;2022-11-21T11:51:36;25.30;22.10
34815;DHT22;21030;53.912;15.214;2022-11-21T11:54:14;26.00;22.50
34815;DHT22;21030;53.912;15.214;2022-11-21T11:56:44;26.40;21.90
34815;DHT22;21030;53.912;15.214;2022-11-21T11:59:20;26.20;21.70
34815;DHT22;21030;53.912;15.214;2022-11-21T12:02:01;26.20;21.80
34815;DHT22;21030;53.912;15.214;2022-11-21T12:04:45;25.60;21.80
34815;DHT22;21030;53.912;15.214;2022-11-21T12:07:24;24.20;22.70
34815;DHT22;21030;53.912;15.214;2022-11-21T12:10:27;24.90;22.80
34815;DHT22;21030;53.912;15.214;2022-11-21T12:13:10;24.60;23.30
34815;DHT22;21030;53.912;15.214;2022-11-21T12:15:44;25.10;22.70
34815;DHT22;21030;53.912;15.214;2022-11-21T12:29:01;28.00;21.20
34815;DHT22;21030;53.912;15.214;2022-11-21T12:31:45;27.60;20.90
34815;DHT22;21030;53.912;15.214;2022-11-21T12:37:32;28.50;20.70
34815;DHT22;21030;53.912;15.214;2022-11-21T12:43:16;28.10;20.40
34815;DHT22;21030;53.912;15.214;2022-11-21T12:45:56;28.00;20.70
34815;DHT22;21030;53.912;15.214;2022-11-21T12:49:02;27.50;20.80
34815;DHT22;21030;53.912;15.214;2022-11-21T12:52:13;26.70;21.50
34815;DHT22;21030;53.912;15.214;2022-11-21T12:58:11;26.10;21.60
34815;DHT22;21030;53.912;15.214;2022-11-21T13:01:01;25.30;21.60
34815;DHT22;21030;53.912;15.214;2022-11-21T13:06:25;24.70;23.50
34815;DHT22;21030;53.912;15.214;2022-11-21T13:08:55;25.90;22.40
34815;DHT22;21030;53.912;15.214;2022-11-21T13:11:28;25.70;22.20
34815;DHT22;21030;53.912;15.214;2022-11-21T13:25:09;26.90;21.20
34815;DHT22;21030;53.912;15.214;2022-11-21T13:32:44;26.70;21.50
34815;DHT22;21030;53.912;15.214;2022-11-21T13:45:56;26.90;21.50
34815;DHT22;21030;53.912;15.214;2022-11-21T14:02:59;27.50;21.20
34815;DHT22;21030;53.912;15.214;2022-11-21T14:05:44;28.20;20.90
34815;DHT22;21030;53.912;15.214;2022-11-21T14:08:20;28.10;20.50
34815;DHT22;21030;53.912;15.214;2022-11-21T14:10:49;28.60;20.40
34815;DHT22;21030;53.912;15.214;2022-11-21T14:13:31;28.20;20.30
34815;DHT22;21030;53.912;15.214;2022-11-21T14:18:30;27.70;20.70
34815;DHT22;21030;53.912;15.214;2022-11-21T14:20:59;27.70;21.00
34815;DHT22;21030;53.912;15.214;2022-11-21T14:23:32;27.50;20.80
34815;DHT22;21030;53.912;15.214;2022-11-21T14:26:16;27.60;20.90
34815;DHT22;21030;53.912;15.214;2022-11-21T14:28:46;26.60;21.30
34815;DHT22;21030;53.912;15.214;2022-11-21T14:31:13;26.80;21.70
34815;DHT22;21030;53.912;15.214;2022-11-21T14:33:45;27.40;21.60
34815;DHT22;21030;53.912;15.214;2022-11-21T14:36:16;27.10;21.10
34815;DHT22;21030;53.912;15.214;2022-11-21T14:41:38;26.90;21.40
34815;DHT22;21030;53.912;15.214;2022-11-21T14:44:13;27.10;21.60
34815;DHT22;21030;53.912;15.214;2022-11-21T14:46:43;26.90;21.50
34815;DHT22;21030;53.912;15.214;2022-11-21T14:51:44;27.50;21.30
34815;DHT22;21030;53.912;15.214;2022-11-21T14:54:32;27.60;21.50
34815;DHT22;21030;53.912;15.214;2022-11-21T14:57:06;27.20;21.50
34815;DHT22;21030;53.912;15.214;2022-11-21T14:59:40;27.00;21.40
34815;DHT22;21030;53.912;15.214;2022-11-21T15:02:18;25.70;21.90
34815;DHT22;21030;53.912;15.214;2022-11-21T15:04:47;25.20;22.60
34815;DHT22;21030;53.912;15.214;2022-11-21T15:07:28;25.60;22.80
34815;DHT22;21030;53.912;15.214;2022-11-21T15:10:01;26.30;22.60
34815;DHT22;21030;53.912;15.214;2022-11-21T15:15:26;26.10;22.00
34815;DHT22;21030;53.912;15.214;2022-11-21T15:18:03;26.10;22.00
34815;DHT22;21030;53.912;15.214;2022-11-21T15:21:02;26.20;22.10
34815;DHT22;21030;53.912;15.214;2022-11-21T15:23:34;26.50;21.80
34815;DHT22;21030;53.912;15.214;2022-11-21T15:26:03;26.60;21.70
34815;DHT22;21030;53.912;15.214;2022-11-21T15:28:30;26.60;21.60
34815;DHT22;21030;53.912;15.214;2022-11-21T15:31:33;26.80;21.50
34815;DHT22;21030;53.912;15.214;2022-11-21T15:34:05;25.70;21.70
34815;DHT22;21030;53.912;15.214;2022-11-21T15:37:11;24.50;22.30
34815;DHT22;21030;53.912;15.214;2022-11-21T15:39:43;24.30;23.00
34815;DHT22;21030;53.912;15.214;2022-11-21T15:45:01;25.10;22.60
34815;DHT22;21030;53.912;15.214;2022-11-21T15:47:29;25.70;22.40
34815;DHT22;21030;53.912;15.214;2022-11-21T15:49:56;26.50;22.20
34815;DHT22;21030;53.912;15.214;2022-11-21T15:52:23;26.60;21.60
34815;DHT22;21030;53.912;15.214;2022-11-21T15:54:50;25.60;21.80
34815;DHT22;21030;53.912;15.214;2022-11-21T15:57:17;24.60;22.30
34815;DHT22;21030;53.912;15.214;2022-11-21T15:59:46;24.20;22.90
34815;DHT22;21030;53.912;15.214;2022-11-21T16:02:13;24.80;22.90
34815;DHT22;21030;53.912;15.214;2022-11-21T16:04:41;25.50;22.70
34815;DHT22;21030;53.912;15.214;2022-11-21T16:07:08;26.50;22.20
34815;DHT22;21030;53.912;15.214;2022-11-21T16:09:35;27.10;21.60
34815;DHT22;21030;53.912;15.214;2022-11-21T16:12:05;27.60;21.40
34815;DHT22;21030;53.912;15.214;2022-11-21T16:14:32;27.10;21.10
34815;DHT22;21030;53.912;15.214;2022-11-21T16:16:59;26.60;21.20
34815;DHT22;21030;53.912;15.214;2022-11-21T16:19:26;26.90;21.40
34815;DHT22;21030;53.912;15.214;2022-11-21T16:21:54;26.40;21.10
34815;DHT22;21030;53.912;15.214;2022-11-21T16:24:21;26.30;21.30
34815;DHT22;21030;53.912;15.214;2022-11-21T16:26:48;25.80;21.10
34815;DHT22;21030;53.912;15.214;2022-11-21T16:29:19;25.20;21.20
34815;DHT22;21030;53.912;15.214;2022-11-21T16:31:46;23.90;22.10
34815;DHT22;21030;53.912;15.214;2022-11-21T16:34:20;24.90;22.60
34815;DHT22;21030;53.912;15.214;2022-11-21T16:36:48;25.40;22.10
34815;DHT22;21030;53.912;15.214;2022-11-21T16:39:16;26.00;21.80
34815;DHT22;21030;53.912;15.214;2022-11-21T16:41:55;25.30;21.40
34815;DHT22;21030;53.912;15.214;2022-11-21T16:44:22;26.50;21.50
34815;DHT22;21030;53.912;15.214;2022-11-21T16:46:49;25.90;21.30
34815;DHT22;21030;53.912;15.214;2022-11-21T16:49:20;25.80;21.40
34815;DHT22;21030;53.912;15.214;2022-11-21T16:51:49;25.60;21.50
34815;DHT22;21030;53.912;15.214;2022-11-21T16:54:16;26.00;21.50
34815;DHT22;21030;53.912;15.214;2022-11-21T16:56:46;25.80;21.20
34815;DHT22;21030;53.912;15.214;2022-11-21T16:59:13;24.20;22.10
34815;DHT22;21030;53.912;15.214;2022-11-21T17:01:40;24.20;22.80
34815;DHT22;21030;53.912;15.214;2022-11-21T17:04:09;25.10;22.50
34815;DHT22;21030;53.912;15.214;2022-11-21T17:06:43;24.50;22.20
34815;DHT22;21030;53.912;15.214;2022-11-21T17:09:10;24.20;22.80
34815;DHT22;21030;53.912;15.214;2022-11-21T17:11:37;24.90;22.70
34815;DHT22;21030;53.912;15.214;2022-11-21T17:14:05;25.40;21.90
34815;DHT22;21030;53.912;15.214;2022-11-21T17:16:33;25.80;21.80
34815;DHT22;21030;53.912;15.214;2022-11-21T17:19:01;25.80;21.50
34815;DHT22;21030;53.912;15.214;2022-11-21T17:21:31;25.40;21.30
34815;DHT22;21030;53.912;15.214;2022-11-21T17:23:58;25.10;21.60
34815;DHT22;21030;53.912;15.214;2022-11-21T17:26:27;24.90;21.70
34815;DHT22;21030;53.912;15.214;2022-11-21T17:28:59;23.60;22.40
34815;DHT22;21030;53.912;15.214;2022-11-21T17:31:27;23.40;23.20
34815;DHT22;21030;53.912;15.214;2022-11-21T17:33:55;23.50;23.10
34815;DHT22;21030;53.912;15.214;2022-11-21T17:36:26;23.70;23.30
34815;DHT22;21030;53.912;15.214;2022-11-21T17:38:53;24.30;22.80
34815;DHT22;21030;53.912;15.214;2022-11-21T17:41:22;25.40;22.50
34815;DHT22;21030;53.912;15.214;2022-11-21T17:43:55;26.50;21.40
34815;DHT22;21030;53.912;15.214;2022-11-21T17:46:24;25.60;21.50